Granville, Indiana
Current Conditions -  °F | °C
As of 1:53 AM on Friday 19 Dec 2014 (Local Time) from KMIE Reporting Station
Overcast Overcast  
Wind Chill: 18°   Ceiling: 1600
Heat Index: 26°   Visibility: 8mi
Dew Point: 20°   Wind: 7mph
Humidity: 78%   Direction: 270°W
Pressure: 30.23"   Gusts: NA
Location:  40.3453°N, 85.3353°W
Report Text: KMIE 190653Z AUTO 27006KT 8SM OVC016 M03/M07 A3023 RMK AO2 SLP247 T10331067
Loading
Personal Weather Stations






























Interactive Weather Map New forecast layout! Learn more

10-Day Weather Forecast

Advertisements
Track Severe Weather on mobile